Time;durP1;ratioP1;P1;durP2;ratioP2;P2;SDS_P1;SDS_P2;PMS_P1;PMS_P2;Temp;Humidity;BMP_temperature;BMP_pressure;BME280_temperature;BME280_humidity;BME280_pressure;Samples;Min_cycle;Max_cycle;Signal;HPM_P1;HPM_P2
2023/04/20 00:00:37;;;;;;;2.47;1.40;;;;;;;10.45;44.00;101924.50;4938241;28;97217;-50
2023/04/20 00:03:02;;;;;;;2.03;1.53;;;;;;;10.38;43.94;101908.28;4934921;28;96865;-52
2023/04/20 00:05:30;;;;;;;2.20;1.73;;;;;;;10.33;44.03;101908.91;4933654;28;97168;-52
2023/04/20 00:07:56;;;;;;;3.20;1.63;;;;;;;10.26;44.62;101917.47;4936302;28;97110;-50
2023/04/20 00:10:21;;;;;;;2.67;1.63;;;;;;;10.13;44.90;101918.84;4939586;28;97398;-51
2023/04/20 00:12:47;;;;;;;2.07;1.43;;;;;;;10.13;44.65;101924.34;4934507;28;96821;-50
2023/04/20 00:15:12;;;;;;;3.97;2.53;;;;;;;10.00;46.05;101921.72;4935264;28;97150;-51
2023/04/20 00:17:38;;;;;;;4.63;2.20;;;;;;;10.03;45.65;101918.03;4936424;28;98658;-51
2023/04/20 00:20:05;;;;;;;2.60;1.73;;;;;;;10.02;45.27;101908.28;4933385;28;97008;-50
2023/04/20 00:22:30;;;;;;;3.40;1.70;;;;;;;10.07;44.81;101904.91;4934036;28;97137;-51
2023/04/20 00:24:55;;;;;;;2.90;1.20;;;;;;;10.07;45.25;101910.41;4939281;28;96823;-51
2023/04/20 00:27:21;;;;;;;1.77;1.67;;;;;;;10.09;44.97;101905.19;4931972;28;96813;-51
2023/04/20 00:29:46;;;;;;;2.90;1.43;;;;;;;10.11;44.89;101888.28;4937060;28;97641;-50
2023/04/20 00:32:11;;;;;;;2.20;1.67;;;;;;;10.05;45.21;101899.09;4931478;28;97230;-54
2023/04/20 00:34:37;;;;;;;2.23;2.03;;;;;;;9.98;45.28;101887.66;4932616;28;97343;-52
2023/04/20 00:37:02;;;;;;;1.83;1.63;;;;;;;9.98;45.01;101885.66;4931405;28;96820;-51
2023/04/20 00:39:28;;;;;;;5.20;1.70;;;;;;;10.05;44.95;101884.59;4934416;28;97432;-50
2023/04/20 00:41:53;;;;;;;1.83;1.73;;;;;;;10.01;45.29;101890.25;4933884;28;96961;-50
2023/04/20 00:44:18;;;;;;;1.20;1.10;;;;;;;10.03;44.98;101890.53;4936067;28;96947;-50
2023/04/20 00:46:43;;;;;;;1.80;1.70;;;;;;;10.12;44.93;101895.31;4935307;28;96886;-50
2023/04/20 00:49:10;;;;;;;3.43;1.60;;;;;;;10.10;46.09;101881.22;4934217;28;96919;-50
2023/04/20 00:51:35;;;;;;;3.77;1.30;;;;;;;10.06;45.17;101886.13;4937222;28;97114;-51
2023/04/20 00:54:01;;;;;;;2.10;1.77;;;;;;;10.06;45.02;101889.63;4934392;28;97515;-52
2023/04/20 00:56:27;;;;;;;1.53;1.43;;;;;;;10.06;45.21;101889.63;4937940;28;97442;-53
2023/04/20 00:58:52;;;;;;;2.40;1.40;;;;;;;10.04;45.31;101883.84;4933255;28;97144;-51
2023/04/20 01:01:18;;;;;;;6.20;1.93;;;;;;;10.04;45.34;101883.84;4935509;28;97026;-52
2023/04/20 01:03:44;;;;;;;1.97;1.10;;;;;;;10.09;45.26;101896.22;4932758;28;96572;-50
2023/04/20 01:06:12;;;;;;;1.90;1.50;;;;;;;10.06;45.43;101886.88;4936101;28;97882;-50
2023/04/20 01:08:48;;;;;;;1.33;1.23;;;;;;;10.05;46.05;101879.09;4939543;28;97302;-51
2023/04/20 01:11:13;;;;;;;2.53;1.50;;;;;;;10.03;45.51;101867.78;4934082;28;97229;-50
2023/04/20 01:13:39;;;;;;;4.20;1.37;;;;;;;10.05;45.59;101857.84;4936558;28;97116;-50
2023/04/20 01:16:04;;;;;;;2.33;1.60;;;;;;;10.01;45.40;101859.22;4933229;28;97323;-50
2023/04/20 01:18:40;;;;;;;7.80;2.00;;;;;;;9.99;46.67;101854.19;4936170;28;97242;-51
2023/04/20 01:21:06;;;;;;;1.70;1.13;;;;;;;9.94;45.74;101849.31;4948707;28;97226;-51
2023/04/20 01:23:33;;;;;;;3.80;1.93;;;;;;;9.96;46.36;101849.59;4936186;28;96826;-50
2023/04/20 01:25:59;;;;;;;1.70;1.60;;;;;;;9.91;46.04;101849.47;4936354;28;97748;-51
2023/04/20 01:28:25;;;;;;;2.20;1.33;;;;;;;9.83;46.71;101841.50;4936103;28;97340;-50
2023/04/20 01:30:51;;;;;;;4.83;1.60;;;;;;;9.78;46.19;101846.88;4934486;28;97028;-50
2023/04/20 01:33:16;;;;;;;1.97;1.43;;;;;;;9.83;46.30;101840.75;4936197;28;97078;-51
2023/04/20 01:35:42;;;;;;;1.70;1.60;;;;;;;9.82;46.30;101836.50;4935238;28;96865;-50
2023/04/20 01:38:07;;;;;;;2.00;1.80;;;;;;;9.90;46.10;101837.69;4933526;28;96941;-49
2023/04/20 01:40:33;;;;;;;1.60;1.50;;;;;;;9.91;47.00;101836.50;4936503;28;97045;-51
2023/04/20 01:42:58;;;;;;;1.70;1.60;;;;;;;9.80;46.65;101841.69;4939156;28;96791;-50
2023/04/20 01:45:23;;;;;;;1.60;1.50;;;;;;;9.76;46.76;101832.81;4936954;28;97261;-52
2023/04/20 01:47:49;;;;;;;4.43;1.80;;;;;;;9.74;46.94;101838.75;4934700;28;98575;-51
2023/04/20 01:50:14;;;;;;;2.87;1.60;;;;;;;9.77;47.27;101832.38;4935770;28;97000;-51
2023/04/20 01:52:39;;;;;;;3.20;1.40;;;;;;;9.79;46.78;101829.91;4935541;28;97279;-50
2023/04/20 01:55:05;;;;;;;7.10;1.70;;;;;;;9.81;46.82;101832.19;4935741;28;97121;-50
2023/04/20 01:57:30;;;;;;;2.73;1.53;;;;;;;9.77;46.92;101829.63;4934237;28;97227;-50
2023/04/20 01:59:56;;;;;;;4.00;1.60;;;;;;;9.80;46.97;101828.72;4932514;28;96983;-51
2023/04/20 02:02:21;;;;;;;2.63;1.80;;;;;;;9.78;46.87;101828.38;4933492;28;97186;-50
2023/04/20 02:04:46;;;;;;;2.23;1.40;;;;;;;9.78;46.94;101836.63;4932821;28;97357;-50
2023/04/20 02:07:12;;;;;;;1.40;1.30;;;;;;;9.83;46.76;101827.78;4933087;28;97202;-50
2023/04/20 02:09:37;;;;;;;3.33;2.00;;;;;;;9.83;46.99;101827.78;4934623;28;96767;-51
2023/04/20 02:12:03;;;;;;;5.63;1.37;;;;;;;9.87;46.98;101811.16;4932757;28;96832;-50
2023/04/20 02:14:28;;;;;;;1.93;1.37;;;;;;;9.88;46.91;101809.91;4935191;28;97929;-51
2023/04/20 02:16:53;;;;;;;3.33;1.50;;;;;;;9.86;47.13;101808.84;4932414;28;98206;-50
2023/04/20 02:19:19;;;;;;;2.60;1.83;;;;;;;9.83;47.12;101805.00;4936647;28;96939;-50
2023/04/20 02:21:44;;;;;;;2.63;1.47;;;;;;;9.83;47.22;101805.00;4932720;28;97000;-52
2023/04/20 02:24:10;;;;;;;3.73;1.50;;;;;;;9.73;47.97;101801.53;4933407;28;97256;-50
2023/04/20 02:26:35;;;;;;;2.47;1.63;;;;;;;9.78;47.42;101789.91;4932425;28;97010;-50
2023/04/20 02:29:00;;;;;;;2.33;1.97;;;;;;;9.87;47.41;101791.13;4932271;28;96741;-51
2023/04/20 02:31:26;;;;;;;1.97;1.57;;;;;;;9.91;47.32;101800.75;4933628;28;96963;-50
2023/04/20 02:33:51;;;;;;;1.40;1.30;;;;;;;9.94;47.40;101802.56;4933133;28;97288;-50
2023/04/20 02:36:17;;;;;;;5.87;1.40;;;;;;;9.89;47.21;101808.69;4931243;28;97120;-52
2023/04/20 02:38:42;;;;;;;1.70;1.60;;;;;;;9.88;47.35;101809.13;4935461;28;96750;-50
2023/04/20 02:41:07;;;;;;;2.27;1.53;;;;;;;9.89;47.20;101800.47;4932591;28;97077;-50
2023/04/20 02:43:35;;;;;;;1.47;1.37;;;;;;;9.87;47.51;101805.66;4933666;28;97146;-50
2023/04/20 02:46:00;;;;;;;2.03;1.70;;;;;;;9.83;47.81;101794.03;4938754;28;97563;-51
2023/04/20 02:48:25;;;;;;;2.30;2.10;;;;;;;9.73;48.21;101798.00;4939025;28;96757;-51
2023/04/20 02:50:55;;;;;;;2.30;2.10;;;;;;;9.66;48.63;101792.81;4937146;28;97330;-49
2023/04/20 02:53:20;;;;;;;1.60;1.50;;;;;;;9.65;48.74;101796.78;4937763;28;97721;-50
2023/04/20 02:55:46;;;;;;;1.80;1.70;;;;;;;9.60;48.83;101784.44;4938200;28;97028;-51
2023/04/20 02:58:11;;;;;;;2.33;1.90;;;;;;;9.54;49.13;101791.75;4936822;28;96738;-49
2023/04/20 03:00:36;;;;;;;2.00;1.30;;;;;;;9.57;48.98;101779.06;4940454;28;97060;-50
2023/04/20 03:03:02;;;;;;;1.97;1.63;;;;;;;9.57;48.93;101782.59;4944105;28;99432;-50
2023/04/20 03:05:27;;;;;;;1.70;1.60;;;;;;;9.53;48.98;101781.97;4934738;28;97630;-52
2023/04/20 03:07:53;;;;;;;1.70;1.60;;;;;;;9.58;48.74;101777.88;4933748;28;97078;-50
2023/04/20 03:10:18;;;;;;;2.30;1.50;;;;;;;9.63;48.71;101774.50;4938785;28;96899;-51
2023/04/20 03:12:44;;;;;;;1.30;1.20;;;;;;;9.69;48.66;101775.41;4934969;28;97308;-50
2023/04/20 03:15:10;;;;;;;4.27;1.33;;;;;;;9.73;48.82;101774.03;4937535;28;97162;-50
2023/04/20 03:17:35;;;;;;;1.60;1.30;;;;;;;9.76;48.52;101772.38;4938791;28;97379;-50
2023/04/20 03:20:00;;;;;;;2.53;1.60;;;;;;;9.81;48.60;101777.22;4936645;28;97167;-50
2023/04/20 03:22:26;;;;;;;2.80;1.67;;;;;;;9.79;48.46;101779.69;4935927;28;96907;-50
2023/04/20 03:24:51;;;;;;;2.07;1.40;;;;;;;9.77;48.51;101771.13;4936245;28;97140;-50
2023/04/20 03:27:16;;;;;;;2.00;1.83;;;;;;;9.75;48.57;101776.31;4938273;28;100411;-50
2023/04/20 03:29:42;;;;;;;1.90;1.60;;;;;;;9.68;48.86;101777.41;4936031;28;97099;-52
2023/04/20 03:32:07;;;;;;;2.50;1.40;;;;;;;9.70;48.42;101782.44;4938570;28;97332;-51
2023/04/20 03:34:32;;;;;;;1.93;1.53;;;;;;;9.64;49.54;101790.53;4938127;28;97416;-50
2023/04/20 03:36:58;;;;;;;1.83;1.70;;;;;;;9.58;49.67;101789.63;4934898;28;96936;-50
2023/04/20 03:39:23;;;;;;;1.40;1.30;;;;;;;9.51;49.74;101794.63;4939506;28;97122;-52
2023/04/20 03:41:49;;;;;;;1.77;1.60;;;;;;;9.51;50.22;101789.16;4940435;28;97256;-50
2023/04/20 03:44:14;;;;;;;1.80;1.63;;;;;;;9.52;50.07;101779.69;4938169;28;96744;-50
2023/04/20 03:46:40;;;;;;;1.73;1.30;;;;;;;9.57;49.40;101782.59;4936583;28;97205;-49
2023/04/20 03:49:05;;;;;;;1.20;1.10;;;;;;;9.60;49.49;101772.66;4939082;28;96667;-52
2023/04/20 03:51:31;;;;;;;2.83;1.50;;;;;;;9.63;49.43;101774.50;4937503;28;99324;-50
2023/04/20 03:53:56;;;;;;;2.83;1.70;;;;;;;9.67;49.33;101773.13;4936339;28;97017;-52
2023/04/20 03:56:21;;;;;;;1.87;1.40;;;;;;;9.71;49.52;101776.50;4941060;28;97152;-51
2023/04/20 03:58:47;;;;;;;1.67;1.50;;;;;;;9.72;49.34;101780.75;4934844;28;97031;-50
2023/04/20 04:01:12;;;;;;;2.50;1.40;;;;;;;9.74;49.39;101780.31;4935586;28;97300;-51
2023/04/20 04:03:38;;;;;;;3.43;1.70;;;;;;;9.77;49.30;101780.16;4937477;28;96932;-50
2023/04/20 04:06:04;;;;;;;1.63;1.50;;;;;;;9.78;49.12;101778.91;4935458;28;97055;-50
2023/04/20 04:08:30;;;;;;;0.97;0.97;;;;;;;9.84;49.16;101773.56;4933439;28;96779;-50
2023/04/20 04:10:56;;;;;;;4.30;1.80;;;;;;;9.85;49.35;101777.84;4938135;28;96945;-51
2023/04/20 04:13:21;;;;;;;2.70;2.10;;;;;;;9.80;49.36;101768.25;4935644;28;97092;-50
2023/04/20 04:15:47;;;;;;;2.20;1.33;;;;;;;9.79;49.24;101774.19;4937019;28;97406;-50
2023/04/20 04:18:12;;;;;;;1.87;1.70;;;;;;;9.80;49.70;101770.22;4936203;28;97722;-50
2023/04/20 04:20:37;;;;;;;2.17;1.43;;;;;;;9.77;49.84;101765.63;4934351;28;96844;-50
2023/04/20 04:23:04;;;;;;;1.87;1.73;;;;;;;9.72;49.76;101764.25;4933778;28;97147;-52
2023/04/20 04:25:30;;;;;;;4.47;2.03;;;;;;;9.73;49.68;101776.03;4937525;28;96981;-52
2023/04/20 04:27:55;;;;;;;4.40;2.20;;;;;;;9.72;49.92;101777.22;4936180;28;97323;-51
2023/04/20 04:30:20;;;;;;;3.50;1.63;;;;;;;9.75;49.82;101787.31;4937281;28;97116;-50
2023/04/20 04:32:47;;;;;;;3.13;1.90;;;;;;;9.80;49.74;101790.22;4936262;28;97325;-52
2023/04/20 04:35:13;;;;;;;1.67;1.57;;;;;;;9.86;49.76;101782.13;4933670;28;96967;-50
2023/04/20 04:37:38;;;;;;;3.13;1.67;;;;;;;9.86;49.83;101784.88;4935266;28;97184;-52
2023/04/20 04:40:06;;;;;;;1.80;1.70;;;;;;;9.90;49.66;101777.22;4934996;28;96864;-50
2023/04/20 04:42:35;;;;;;;1.60;1.43;;;;;;;9.98;49.76;101780.44;4935801;28;97253;-51
2023/04/20 04:45:02;;;;;;;3.23;1.53;;;;;;;10.02;49.79;101781.81;4935072;28;97405;-50
2023/04/20 04:47:30;;;;;;;3.30;1.83;;;;;;;10.03;49.67;101791.56;4934508;28;97063;-50
2023/04/20 04:49:56;;;;;;;4.03;2.13;;;;;;;10.05;49.65;101783.63;4936250;28;96938;-50
2023/04/20 04:52:21;;;;;;;3.03;1.80;;;;;;;9.97;49.65;101790.66;4933478;28;97158;-50
2023/04/20 04:54:48;;;;;;;2.10;1.90;;;;;;;9.94;50.06;101797.06;4937638;28;98193;-52
2023/04/20 04:57:13;;;;;;;1.90;1.70;;;;;;;9.93;50.10;101795.56;4934414;28;96823;-50
2023/04/20 04:59:39;;;;;;;3.73;2.40;;;;;;;9.92;50.17;101799.53;4936166;28;98998;-51
2023/04/20 05:02:05;;;;;;;2.70;2.00;;;;;;;9.95;50.16;101806.09;4935582;28;97231;-51
2023/04/20 05:04:30;;;;;;;2.67;2.30;;;;;;;9.94;50.13;101802.56;4936346;28;97501;-50
2023/04/20 05:06:55;;;;;;;1.90;1.80;;;;;;;9.89;50.33;101797.72;4940028;28;96894;-51
2023/04/20 05:09:21;;;;;;;5.80;2.00;;;;;;;9.85;50.62;101799.81;4939896;28;97331;-50
2023/04/20 05:11:46;;;;;;;2.90;2.07;;;;;;;9.88;50.44;101807.16;4935758;28;99735;-50
2023/04/20 05:14:12;;;;;;;3.53;1.90;;;;;;;9.81;51.13;101796.47;4937946;28;96671;-50
2023/04/20 05:16:37;;;;;;;5.50;2.17;;;;;;;9.83;50.76;101805.00;4941937;28;99321;-50
2023/04/20 05:19:02;;;;;;;5.07;2.20;;;;;;;9.87;50.74;101808.41;4933819;28;98231;-50
2023/04/20 05:21:28;;;;;;;4.10;2.50;;;;;;;9.91;50.72;101806.25;4931081;28;97117;-51
2023/04/20 05:23:53;;;;;;;6.67;2.30;;;;;;;9.89;50.79;101799.69;4934797;28;96705;-50
2023/04/20 05:26:19;;;;;;;4.53;2.23;;;;;;;9.92;50.78;101802.28;4938735;28;97181;-53
2023/04/20 05:28:44;;;;;;;1.80;1.70;;;;;;;9.92;51.01;101799.53;4934815;28;97094;-51
2023/04/20 05:31:09;;;;;;;2.07;1.87;;;;;;;9.89;50.98;101802.44;4936165;28;97286;-53
2023/04/20 05:33:35;;;;;;;3.90;2.03;;;;;;;9.87;52.20;101802.13;4936092;28;96899;-51
2023/04/20 05:36:00;;;;;;;1.97;1.80;;;;;;;9.87;51.16;101799.38;4936771;28;97241;-50
2023/04/20 05:38:25;;;;;;;1.97;1.63;;;;;;;9.92;50.97;101805.00;4936348;28;97520;-50
2023/04/20 05:40:51;;;;;;;1.90;1.70;;;;;;;9.97;51.07;101807.16;4935675;28;96714;-52
2023/04/20 05:43:18;;;;;;;2.53;1.50;;;;;;;10.04;50.98;101806.09;4934429;28;97107;-50
2023/04/20 05:45:44;;;;;;;6.67;2.03;;;;;;;10.08;50.83;101834.19;4934529;28;97614;-51
2023/04/20 05:48:09;;;;;;;2.53;2.03;;;;;;;10.10;51.12;101818.75;4933588;28;96663;-51
2023/04/20 05:50:35;;;;;;;2.27;1.70;;;;;;;10.13;51.04;101809.63;4938724;28;97076;-50
2023/04/20 05:53:00;;;;;;;1.90;1.70;;;;;;;10.20;50.91;101814.78;4933929;28;96969;-50
2023/04/20 05:55:26;;;;;;;2.73;1.70;;;;;;;10.19;51.00;101820.75;4936568;28;96666;-51
2023/04/20 05:57:51;;;;;;;2.83;2.10;;;;;;;10.18;51.34;101822.72;4932432;28;96918;-51
2023/04/20 06:00:17;;;;;;;2.80;2.37;;;;;;;10.20;51.00;101820.28;4933332;28;97556;-50
2023/04/20 06:02:42;;;;;;;1.90;1.80;;;;;;;10.11;51.15;101822.31;4935883;28;96660;-53
2023/04/20 06:05:09;;;;;;;1.90;1.70;;;;;;;10.12;51.18;101824.59;4935190;28;97425;-50
2023/04/20 06:07:35;;;;;;;3.23;1.87;;;;;;;10.15;51.72;101826.41;4932065;28;97349;-51
2023/04/20 06:10:00;;;;;;;4.03;2.03;;;;;;;10.19;51.19;101818.00;4933967;28;98274;-52
2023/04/20 06:12:26;;;;;;;4.03;1.93;;;;;;;10.26;51.34;101821.22;4934859;28;97063;-51
2023/04/20 06:14:52;;;;;;;6.13;2.23;;;;;;;10.28;51.42;101821.50;4933738;28;97762;-51
2023/04/20 06:17:17;;;;;;;2.77;2.17;;;;;;;10.36;51.15;101830.97;4933398;28;97133;-50
2023/04/20 06:19:42;;;;;;;1.63;1.53;;;;;;;10.31;51.55;101826.06;4934709;28;96897;-50
2023/04/20 06:22:08;;;;;;;1.77;1.67;;;;;;;10.32;51.42;101822.13;4933201;28;97255;-50
2023/04/20 06:24:34;;;;;;;2.50;2.30;;;;;;;10.36;51.32;101827.44;4938705;28;97039;-50
2023/04/20 06:27:00;;;;;;;2.70;1.70;;;;;;;10.42;51.33;101820.09;4936216;28;97007;-50
2023/04/20 06:29:26;;;;;;;5.80;2.30;;;;;;;10.35;51.54;101823.91;4933592;28;97688;-50
2023/04/20 06:31:51;;;;;;;3.83;2.73;;;;;;;10.35;51.39;101820.44;4934103;28;97499;-50
2023/04/20 06:34:17;;;;;;;2.60;2.30;;;;;;;10.48;51.55;101813.50;4936126;28;97237;-51
2023/04/20 06:36:42;;;;;;;2.97;2.13;;;;;;;10.61;51.67;101810.56;4932064;28;97881;-51
2023/04/20 06:39:10;;;;;;;4.60;2.13;;;;;;;10.76;51.31;101824.44;4935308;28;97177;-50
2023/04/20 06:41:36;;;;;;;3.93;2.20;;;;;;;10.79;51.23;101818.00;4930603;28;97189;-51
2023/04/20 06:44:01;;;;;;;2.90;2.33;;;;;;;10.83;51.05;101821.34;4933450;28;97102;-51
2023/04/20 06:46:26;;;;;;;3.87;2.43;;;;;;;10.76;51.43;101816.94;4937918;28;97610;-51
2023/04/20 06:48:52;;;;;;;2.43;2.23;;;;;;;10.83;51.40;101810.34;4931251;28;97029;-51
2023/04/20 06:51:17;;;;;;;1.53;1.43;;;;;;;10.98;51.21;101813.94;4933461;28;97087;-50
2023/04/20 06:53:42;;;;;;;2.03;1.83;;;;;;;11.16;51.12;101805.56;4930485;28;96952;-50
2023/04/20 06:56:08;;;;;;;2.70;2.50;;;;;;;11.20;51.00;101811.66;4933658;28;100022;-51
2023/04/20 06:58:33;;;;;;;2.37;2.20;;;;;;;11.29;51.04;101817.13;4937664;28;97491;-50
2023/04/20 07:00:58;;;;;;;3.10;2.30;;;;;;;11.36;50.93;101813.25;4935238;28;97969;-52
2023/04/20 07:03:24;;;;;;;2.00;1.87;;;;;;;11.43;50.79;101819.16;4934602;28;96847;-51
2023/04/20 07:05:49;;;;;;;3.40;2.77;;;;;;;11.42;50.62;101822.41;4935051;28;97335;-51
2023/04/20 07:08:14;;;;;;;3.60;2.10;;;;;;;11.44;50.64;101826.22;4930917;28;97137;-51
2023/04/20 07:10:40;;;;;;;4.73;2.70;;;;;;;11.48;50.63;101826.78;4933544;28;97746;-50
2023/04/20 07:13:05;;;;;;;3.27;2.37;;;;;;;11.46;50.63;101829.25;4937562;28;96840;-50
2023/04/20 07:15:30;;;;;;;2.67;1.90;;;;;;;11.43;50.71;101829.41;4932542;28;96741;-51
2023/04/20 07:17:56;;;;;;;4.10;2.70;;;;;;;11.46;50.64;101840.28;4938276;28;97514;-50
2023/04/20 07:20:21;;;;;;;2.90;2.20;;;;;;;11.50;50.77;101840.88;4934162;28;97072;-51
2023/04/20 07:22:47;;;;;;;3.93;2.23;;;;;;;11.50;50.77;101835.34;4934220;28;97440;-50
2023/04/20 07:25:12;;;;;;;3.33;2.30;;;;;;;11.48;50.85;101835.06;4932331;28;97660;-50
2023/04/20 07:27:39;;;;;;;2.00;1.80;;;;;;;11.59;50.72;101840.81;4932945;28;97305;-51
2023/04/20 07:30:07;;;;;;;4.20;2.67;;;;;;;11.65;50.57;101836.16;4934570;28;97007;-51
2023/04/20 07:32:34;;;;;;;2.47;2.27;;;;;;;11.72;50.67;101838.59;4936893;28;97147;-52
2023/04/20 07:34:59;;;;;;;2.83;2.63;;;;;;;11.69;50.56;101823.00;4935686;28;98228;-50
2023/04/20 07:37:25;;;;;;;3.80;2.10;;;;;;;11.73;50.57;101842.88;4936693;28;97264;-50
2023/04/20 07:39:51;;;;;;;3.50;2.83;;;;;;;11.76;50.42;101825.38;4936405;28;96786;-51
2023/04/20 07:42:17;;;;;;;2.03;1.93;;;;;;;11.78;50.37;101833.94;4935065;28;96756;-50
2023/04/20 07:44:42;;;;;;;2.47;2.27;;;;;;;11.85;50.51;101835.59;4936219;28;97229;-51
2023/04/20 07:47:07;;;;;;;5.27;3.17;;;;;;;11.95;50.60;101837.78;4936339;28;97240;-50
2023/04/20 07:49:36;;;;;;;2.67;2.20;;;;;;;12.05;50.48;101838.47;4935586;28;97099;-51
2023/04/20 07:52:02;;;;;;;2.53;2.33;;;;;;;12.03;50.21;101836.19;4935254;28;97613;-51
2023/04/20 07:54:27;;;;;;;4.73;2.60;;;;;;;12.12;50.35;101842.88;4943227;28;98810;-51
2023/04/20 07:56:53;;;;;;;2.70;2.50;;;;;;;12.25;50.17;101837.84;4933841;28;96891;-51
2023/04/20 07:59:19;;;;;;;3.30;2.97;;;;;;;12.30;49.75;101837.16;4935090;28;96706;-51
2023/04/20 08:01:45;;;;;;;4.23;2.57;;;;;;;12.37;49.77;101845.81;4935120;28;97190;-50
2023/04/20 08:04:10;;;;;;;2.93;2.73;;;;;;;12.45;49.70;101844.19;4936242;28;97371;-50
2023/04/20 08:06:36;;;;;;;3.00;2.70;;;;;;;12.62;49.59;101834.19;4934205;28;96966;-51
2023/04/20 08:09:02;;;;;;;2.90;2.40;;;;;;;12.77;49.44;101842.47;4935147;28;96684;-50
2023/04/20 08:11:27;;;;;;;4.53;2.70;;;;;;;12.97;49.18;101837.03;4934220;28;96868;-51
2023/04/20 08:13:53;;;;;;;3.40;2.87;;;;;;;13.01;48.93;101843.09;4935678;28;96872;-51
2023/04/20 08:16:18;;;;;;;3.20;2.50;;;;;;;13.06;48.57;101850.72;4937406;28;97057;-50
2023/04/20 08:18:44;;;;;;;3.60;2.80;;;;;;;13.08;48.64;101847.50;4938579;28;97283;-51
2023/04/20 08:21:09;;;;;;;4.33;3.20;;;;;;;13.05;48.51;101843.69;4933092;28;97254;-51
2023/04/20 08:23:35;;;;;;;3.47;3.10;;;;;;;13.04;48.43;101846.91;4936953;28;97481;-50
2023/04/20 08:26:00;;;;;;;5.80;3.60;;;;;;;13.11;48.32;101838.22;4938922;28;97257;-50
2023/04/20 08:28:26;;;;;;;3.53;3.10;;;;;;;13.05;48.21;101846.44;4933648;28;97153;-51
2023/04/20 08:30:52;;;;;;;2.80;2.60;;;;;;;13.07;48.07;101845.97;4934724;28;97053;-50
2023/04/20 08:33:17;;;;;;;3.53;2.70;;;;;;;13.14;48.28;101842.81;4934825;28;100063;-50
2023/04/20 08:35:43;;;;;;;4.10;3.10;;;;;;;13.27;48.09;101846.78;4935350;28;97355;-50
2023/04/20 08:38:08;;;;;;;4.00;3.20;;;;;;;13.39;47.98;101842.91;4937933;28;97193;-51
2023/04/20 08:40:35;;;;;;;2.90;2.70;;;;;;;13.41;47.68;101848.72;4933628;28;97044;-50
2023/04/20 08:43:01;;;;;;;3.30;2.60;;;;;;;13.44;47.45;101846.97;4937374;28;98075;-51
2023/04/20 08:45:29;;;;;;;3.43;3.07;;;;;;;13.44;47.26;101847.75;4933887;28;96746;-50
2023/04/20 08:47:56;;;;;;;4.03;3.57;;;;;;;13.46;47.48;101852.78;4935499;28;97273;-50
2023/04/20 08:50:22;;;;;;;2.83;2.60;;;;;;;13.52;47.22;101851.63;4939570;28;97364;-50
2023/04/20 08:52:47;;;;;;;4.20;3.33;;;;;;;13.49;47.21;101852.59;4934818;28;97347;-51
2023/04/20 08:55:16;;;;;;;3.33;2.67;;;;;;;13.42;47.17;101849.47;4937436;28;96997;-50
2023/04/20 08:57:42;;;;;;;12.57;3.20;;;;;;;13.37;47.17;101856.44;4941293;28;97204;-51
2023/04/20 09:00:10;;;;;;;3.17;2.87;;;;;;;13.31;47.12;101849.31;4935010;28;97021;-51
2023/04/20 09:02:36;;;;;;;5.00;2.80;;;;;;;13.21;47.17;101851.47;4936600;28;98535;-51
2023/04/20 09:05:05;;;;;;;3.30;3.00;;;;;;;13.23;47.26;101856.50;4935309;28;97065;-52
2023/04/20 09:07:30;;;;;;;3.63;3.00;;;;;;;13.24;47.36;101858.00;4935749;28;97032;-51
2023/04/20 09:09:57;;;;;;;4.43;3.40;;;;;;;13.29;47.27;101854.56;4937322;28;96870;-51
2023/04/20 09:12:23;;;;;;;4.10;3.30;;;;;;;13.46;47.19;101848.03;4937093;28;97437;-51
2023/04/20 09:14:50;;;;;;;3.53;3.23;;;;;;;13.74;47.08;101848.38;4936750;28;96813;-50
2023/04/20 09:17:16;;;;;;;4.70;2.97;;;;;;;14.00;46.76;101853.97;4936364;28;96846;-50
2023/04/20 09:19:51;;;;;;;3.67;3.23;;;;;;;14.19;46.05;101853.16;4937920;28;97594;-51
2023/04/20 09:22:16;;;;;;;2.70;2.53;;;;;;;14.36;46.15;101853.34;4935606;28;97327;-51
2023/04/20 09:24:41;;;;;;;3.83;3.50;;;;;;;14.47;45.96;101852.69;4934577;28;96796;-51
2023/04/20 09:27:17;;;;;;;3.27;2.97;;;;;;;14.42;45.61;101851.38;4938974;28;97216;-50
2023/04/20 09:29:43;;;;;;;3.10;2.77;;;;;;;14.32;45.72;101852.81;4932472;28;96839;-50
2023/04/20 09:32:22;;;;;;;2.73;2.53;;;;;;;14.22;45.57;101854.94;4937504;28;97211;-50
2023/04/20 09:34:47;;;;;;;3.03;2.83;;;;;;;14.25;46.11;101847.66;4941114;28;97121;-51
2023/04/20 09:37:16;;;;;;;3.37;2.57;;;;;;;14.33;45.91;101845.25;4936808;28;97033;-51
2023/04/20 09:39:45;;;;;;;2.50;2.40;;;;;;;14.62;45.81;101837.47;4934464;28;97513;-51
2023/04/20 09:42:12;;;;;;;2.97;2.67;;;;;;;14.85;45.62;101850.22;4937587;28;97904;-50
2023/04/20 09:44:38;;;;;;;3.40;3.13;;;;;;;14.93;45.06;101845.75;4933381;28;96649;-51
2023/04/20 09:47:04;;;;;;;3.40;3.20;;;;;;;14.87;44.90;101833.13;4938408;28;96797;-52
2023/04/20 09:49:31;;;;;;;2.93;2.73;;;;;;;14.92;45.12;101832.38;4936068;28;97200;-51
2023/04/20 09:51:57;;;;;;;2.70;2.50;;;;;;;15.07;45.01;101832.25;4933966;28;98096;-50
2023/04/20 09:54:22;;;;;;;3.70;2.90;;;;;;;15.27;44.45;101824.53;4935248;28;97641;-51
2023/04/20 09:56:48;;;;;;;3.57;3.20;;;;;;;15.23;44.52;101829.56;4932611;28;97196;-51
2023/04/20 09:59:18;;;;;;;2.60;2.40;;;;;;;15.55;44.63;101830.25;4934963;28;97014;-52
2023/04/20 10:01:43;;;;;;;3.30;2.60;;;;;;;15.84;44.52;101829.84;4932613;28;96782;-51
2023/04/20 10:04:09;;;;;;;2.73;2.53;;;;;;;16.05;43.88;101833.19;4933682;28;97147;-50
2023/04/20 10:06:36;;;;;;;3.20;2.90;;;;;;;16.04;43.80;101829.63;4933807;28;100190;-51
2023/04/20 10:09:06;;;;;;;3.53;2.80;;;;;;;16.17;43.92;101827.13;4941084;28;97112;-50
2023/04/20 10:11:35;;;;;;;2.97;2.70;;;;;;;16.47;43.31;101827.41;4935397;28;97071;-51
2023/04/20 10:14:22;;;;;;;3.53;2.80;;;;;;;16.61;41.70;101831.22;4934119;28;97475;-51
2023/04/20 10:17:04;;;;;;;2.83;2.23;;;;;;;16.50;42.13;101826.44;4933751;28;96751;-50
2023/04/20 10:19:40;;;;;;;2.67;2.47;;;;;;;16.41;42.63;101819.09;4935762;28;96981;-51
2023/04/20 10:22:07;;;;;;;2.87;2.57;;;;;;;16.26;43.11;101829.69;4937142;28;97174;-51
2023/04/20 10:24:32;;;;;;;2.40;2.20;;;;;;;15.93;43.05;101829.63;4935404;28;97079;-51
2023/04/20 10:26:59;;;;;;;2.43;2.23;;;;;;;15.73;43.16;101843.69;4934533;28;96799;-52
2023/04/20 10:29:26;;;;;;;3.30;3.10;;;;;;;15.79;42.78;101835.38;4934218;28;97430;-51
2023/04/20 10:31:52;;;;;;;2.60;2.40;;;;;;;16.01;43.47;101830.63;4933884;28;97481;-51
2023/04/20 10:34:31;;;;;;;3.90;2.63;;;;;;;16.48;42.71;101817.81;4936218;28;97508;-50
2023/04/20 10:37:07;;;;;;;2.40;2.20;;;;;;;16.56;41.69;101820.88;4937137;28;98159;-50
2023/04/20 10:39:33;;;;;;;2.80;2.60;;;;;;;16.37;42.68;101821.34;4929257;28;97329;-51
2023/04/20 10:42:00;;;;;;;2.53;2.10;;;;;;;16.28;42.58;101827.16;4933752;28;97764;-51
2023/04/20 10:44:26;;;;;;;2.73;2.53;;;;;;;16.21;42.04;101816.53;4933765;28;97135;-50
2023/04/20 10:46:52;;;;;;;4.00;3.27;;;;;;;16.25;42.59;101827.41;4936444;28;97396;-50
2023/04/20 10:49:17;;;;;;;2.10;2.00;;;;;;;16.49;42.60;101822.09;4931735;28;97216;-50
2023/04/20 10:51:49;;;;;;;2.53;2.30;;;;;;;16.62;41.56;101816.81;4933995;28;97278;-51
2023/04/20 10:54:15;;;;;;;2.87;2.50;;;;;;;16.76;42.04;101809.50;4933682;28;97051;-51
2023/04/20 10:56:50;;;;;;;2.83;2.63;;;;;;;16.80;41.15;101832.22;4932677;28;97107;-50
2023/04/20 10:59:23;;;;;;;4.20;2.73;;;;;;;16.59;39.83;101831.75;4933599;28;97306;-51
2023/04/20 11:01:50;;;;;;;3.17;2.43;;;;;;;16.32;41.59;101818.56;4937823;28;96986;-51
2023/04/20 11:04:16;;;;;;;4.03;2.47;;;;;;;16.45;41.58;101816.81;4933390;28;96966;-50
2023/04/20 11:06:44;;;;;;;3.67;3.37;;;;;;;16.49;41.29;101820.09;4937288;28;96851;-51
2023/04/20 11:09:25;;;;;;;2.73;2.53;;;;;;;16.51;40.75;101818.88;4936881;28;96898;-52
2023/04/20 11:12:01;;;;;;;3.17;2.60;;;;;;;16.52;40.97;101823.16;4935309;28;97792;-51
2023/04/20 11:14:27;;;;;;;2.07;1.97;;;;;;;16.67;41.59;101815.31;4935250;28;97175;-52
2023/04/20 11:16:54;;;;;;;2.93;2.70;;;;;;;16.77;41.48;101816.56;4936177;28;96980;-50
2023/04/20 11:19:33;;;;;;;2.67;2.10;;;;;;;16.94;41.32;101808.97;4936534;28;96779;-51
2023/04/20 11:21:59;;;;;;;2.57;2.37;;;;;;;17.29;40.99;101803.56;4937198;28;97728;-52
2023/04/20 11:24:28;;;;;;;2.50;2.30;;;;;;;17.61;40.28;101784.47;4937550;28;97221;-50